sensor_id;sensor_type;location;lat;lon;timestamp;P1;durP1;ratioP1;P2;durP2;ratioP2
41436;SDS011;27178;49.460;10.850;2024-02-26T00:00:32;4.88;;;4.47;;
41436;SDS011;27178;49.460;10.850;2024-02-26T00:03:01;5.13;;;4.63;;
41436;SDS011;27178;49.460;10.850;2024-02-26T00:05:29;5.03;;;4.55;;
41436;SDS011;27178;49.460;10.850;2024-02-26T00:08:00;4.70;;;4.30;;
41436;SDS011;27178;49.460;10.850;2024-02-26T00:10:31;5.37;;;4.90;;
41436;SDS011;27178;49.460;10.850;2024-02-26T00:12:59;4.77;;;4.37;;
41436;SDS011;27178;49.460;10.850;2024-02-26T00:15:27;4.93;;;4.43;;
41436;SDS011;27178;49.460;10.850;2024-02-26T00:17:56;3.93;;;3.63;;
41436;SDS011;27178;49.460;10.850;2024-02-26T00:20:24;4.50;;;4.10;;
41436;SDS011;27178;49.460;10.850;2024-02-26T00:22:52;4.40;;;4.00;;
41436;SDS011;27178;49.460;10.850;2024-02-26T00:25:22;4.50;;;4.10;;
41436;SDS011;27178;49.460;10.850;2024-02-26T00:27:50;4.53;;;4.13;;
41436;SDS011;27178;49.460;10.850;2024-02-26T00:30:18;4.30;;;3.90;;
41436;SDS011;27178;49.460;10.850;2024-02-26T00:32:47;4.63;;;4.23;;
41436;SDS011;27178;49.460;10.850;2024-02-26T00:35:15;5.47;;;4.20;;
41436;SDS011;27178;49.460;10.850;2024-02-26T00:37:46;4.40;;;4.00;;
41436;SDS011;27178;49.460;10.850;2024-02-26T00:40:15;4.63;;;4.10;;
41436;SDS011;27178;49.460;10.850;2024-02-26T00:42:44;6.78;;;4.90;;
41436;SDS011;27178;49.460;10.850;2024-02-26T00:45:14;4.63;;;4.23;;
41436;SDS011;27178;49.460;10.850;2024-02-26T00:47:43;4.60;;;4.10;;
41436;SDS011;27178;49.460;10.850;2024-02-26T00:50:14;4.70;;;4.30;;
41436;SDS011;27178;49.460;10.850;2024-02-26T00:52:42;4.00;;;3.70;;
41436;SDS011;27178;49.460;10.850;2024-02-26T00:55:11;4.73;;;4.23;;
41436;SDS011;27178;49.460;10.850;2024-02-26T00:57:40;4.23;;;3.83;;
41436;SDS011;27178;49.460;10.850;2024-02-26T01:00:10;5.70;;;4.80;;
41436;SDS011;27178;49.460;10.850;2024-02-26T01:02:39;4.38;;;3.95;;
41436;SDS011;27178;49.460;10.850;2024-02-26T01:05:08;4.63;;;4.10;;
41436;SDS011;27178;49.460;10.850;2024-02-26T01:07:36;4.40;;;4.00;;
41436;SDS011;27178;49.460;10.850;2024-02-26T01:10:06;4.43;;;4.03;;
41436;SDS011;27178;49.460;10.850;2024-02-26T01:12:35;5.07;;;4.57;;
41436;SDS011;27178;49.460;10.850;2024-02-26T01:15:04;4.97;;;4.47;;
41436;SDS011;27178;49.460;10.850;2024-02-26T01:17:35;6.13;;;4.97;;
41436;SDS011;27178;49.460;10.850;2024-02-26T01:20:03;5.37;;;4.50;;
41436;SDS011;27178;49.460;10.850;2024-02-26T01:22:32;5.10;;;4.57;;
41436;SDS011;27178;49.460;10.850;2024-02-26T01:25:00;5.67;;;5.07;;
41436;SDS011;27178;49.460;10.850;2024-02-26T01:27:29;6.17;;;5.00;;
41436;SDS011;27178;49.460;10.850;2024-02-26T01:30:00;5.53;;;5.03;;
41436;SDS011;27178;49.460;10.850;2024-02-26T01:32:30;6.07;;;4.60;;
41436;SDS011;27178;49.460;10.850;2024-02-26T01:35:00;4.80;;;4.35;;
41436;SDS011;27178;49.460;10.850;2024-02-26T01:37:29;5.20;;;4.77;;
41436;SDS011;27178;49.460;10.850;2024-02-26T01:39:58;5.30;;;4.63;;
41436;SDS011;27178;49.460;10.850;2024-02-26T01:42:26;5.83;;;4.83;;
41436;SDS011;27178;49.460;10.850;2024-02-26T01:44:55;5.10;;;4.60;;
41436;SDS011;27178;49.460;10.850;2024-02-26T01:47:24;5.37;;;4.60;;
41436;SDS011;27178;49.460;10.850;2024-02-26T01:49:53;5.70;;;5.00;;
41436;SDS011;27178;49.460;10.850;2024-02-26T01:52:24;5.17;;;4.67;;
41436;SDS011;27178;49.460;10.850;2024-02-26T01:54:52;5.78;;;5.07;;
41436;SDS011;27178;49.460;10.850;2024-02-26T01:57:20;5.43;;;4.90;;
41436;SDS011;27178;49.460;10.850;2024-02-26T01:59:49;5.53;;;5.03;;
41436;SDS011;27178;49.460;10.850;2024-02-26T02:02:17;5.73;;;5.13;;
41436;SDS011;27178;49.460;10.850;2024-02-26T02:04:46;6.35;;;5.40;;
41436;SDS011;27178;49.460;10.850;2024-02-26T02:07:14;6.27;;;5.60;;
41436;SDS011;27178;49.460;10.850;2024-02-26T02:09:45;6.50;;;5.37;;
41436;SDS011;27178;49.460;10.850;2024-02-26T02:12:13;5.88;;;4.93;;
41436;SDS011;27178;49.460;10.850;2024-02-26T02:14:42;4.53;;;4.13;;
41436;SDS011;27178;49.460;10.850;2024-02-26T02:17:10;5.13;;;4.63;;
41436;SDS011;27178;49.460;10.850;2024-02-26T02:19:39;4.67;;;4.27;;
41436;SDS011;27178;49.460;10.850;2024-02-26T02:22:08;5.80;;;4.87;;
41436;SDS011;27178;49.460;10.850;2024-02-26T02:24:37;5.27;;;4.77;;
41436;SDS011;27178;49.460;10.850;2024-02-26T02:27:05;6.17;;;5.57;;
41436;SDS011;27178;49.460;10.850;2024-02-26T02:29:33;6.23;;;5.50;;
41436;SDS011;27178;49.460;10.850;2024-02-26T02:32:01;7.83;;;7.13;;
41436;SDS011;27178;49.460;10.850;2024-02-26T02:34:32;8.33;;;7.40;;
41436;SDS011;27178;49.460;10.850;2024-02-26T02:37:01;9.10;;;6.97;;
41436;SDS011;27178;49.460;10.850;2024-02-26T02:39:31;8.37;;;7.10;;
41436;SDS011;27178;49.460;10.850;2024-02-26T02:41:59;7.67;;;6.83;;
41436;SDS011;27178;49.460;10.850;2024-02-26T02:44:28;9.83;;;7.70;;
41436;SDS011;27178;49.460;10.850;2024-02-26T02:46:56;8.90;;;7.43;;
41436;SDS011;27178;49.460;10.850;2024-02-26T02:49:24;9.97;;;7.33;;
41436;SDS011;27178;49.460;10.850;2024-02-26T02:51:53;9.25;;;7.22;;
41436;SDS011;27178;49.460;10.850;2024-02-26T02:54:23;7.57;;;6.77;;
41436;SDS011;27178;49.460;10.850;2024-02-26T02:56:53;8.53;;;7.73;;
41436;SDS011;27178;49.460;10.850;2024-02-26T02:59:21;8.50;;;7.10;;
41436;SDS011;27178;49.460;10.850;2024-02-26T03:01:50;10.25;;;8.35;;
41436;SDS011;27178;49.460;10.850;2024-02-26T03:04:18;12.03;;;9.40;;
41436;SDS011;27178;49.460;10.850;2024-02-26T03:06:46;10.55;;;8.55;;
41436;SDS011;27178;49.460;10.850;2024-02-26T03:09:15;10.73;;;9.02;;
41436;SDS011;27178;49.460;10.850;2024-02-26T03:11:43;9.50;;;7.88;;
41436;SDS011;27178;49.460;10.850;2024-02-26T03:14:13;10.80;;;9.17;;
41436;SDS011;27178;49.460;10.850;2024-02-26T03:16:42;10.02;;;9.02;;
41436;SDS011;27178;49.460;10.850;2024-02-26T03:19:10;10.07;;;8.95;;
41436;SDS011;27178;49.460;10.850;2024-02-26T03:21:38;10.10;;;8.83;;
41436;SDS011;27178;49.460;10.850;2024-02-26T03:24:07;9.82;;;8.68;;
41436;SDS011;27178;49.460;10.850;2024-02-26T03:26:36;10.67;;;9.37;;
41436;SDS011;27178;49.460;10.850;2024-02-26T03:29:05;9.63;;;8.65;;
41436;SDS011;27178;49.460;10.850;2024-02-26T03:31:35;10.73;;;9.25;;
41436;SDS011;27178;49.460;10.850;2024-02-26T03:34:03;10.02;;;8.95;;
41436;SDS011;27178;49.460;10.850;2024-02-26T03:36:31;10.73;;;9.38;;
41436;SDS011;27178;49.460;10.850;2024-02-26T03:39:00;10.85;;;9.43;;
41436;SDS011;27178;49.460;10.850;2024-02-26T03:41:30;11.80;;;10.40;;
41436;SDS011;27178;49.460;10.850;2024-02-26T03:43:59;12.18;;;9.25;;
41436;SDS011;27178;49.460;10.850;2024-02-26T03:46:27;9.88;;;8.88;;
41436;SDS011;27178;49.460;10.850;2024-02-26T03:48:57;11.35;;;9.55;;
41436;SDS011;27178;49.460;10.850;2024-02-26T03:51:26;10.55;;;9.40;;
41436;SDS011;27178;49.460;10.850;2024-02-26T03:53:57;9.77;;;8.77;;
41436;SDS011;27178;49.460;10.850;2024-02-26T03:56:25;9.45;;;8.23;;
41436;SDS011;27178;49.460;10.850;2024-02-26T03:58:54;9.15;;;8.25;;
41436;SDS011;27178;49.460;10.850;2024-02-26T04:01:22;8.60;;;7.80;;
41436;SDS011;27178;49.460;10.850;2024-02-26T04:03:51;8.35;;;7.50;;
41436;SDS011;27178;49.460;10.850;2024-02-26T04:06:21;8.02;;;7.25;;
41436;SDS011;27178;49.460;10.850;2024-02-26T04:08:49;10.27;;;7.63;;
41436;SDS011;27178;49.460;10.850;2024-02-26T04:11:17;9.40;;;8.00;;
41436;SDS011;27178;49.460;10.850;2024-02-26T04:13:46;9.70;;;8.57;;
41436;SDS011;27178;49.460;10.850;2024-02-26T04:16:16;12.52;;;9.13;;
41436;SDS011;27178;49.460;10.850;2024-02-26T04:18:44;9.43;;;8.50;;
41436;SDS011;27178;49.460;10.850;2024-02-26T04:21:13;9.88;;;8.88;;
41436;SDS011;27178;49.460;10.850;2024-02-26T04:23:42;11.60;;;9.43;;
41436;SDS011;27178;49.460;10.850;2024-02-26T04:26:11;10.97;;;9.77;;
41436;SDS011;27178;49.460;10.850;2024-02-26T04:28:39;10.80;;;9.70;;
41436;SDS011;27178;49.460;10.850;2024-02-26T04:31:07;11.18;;;10.05;;
41436;SDS011;27178;49.460;10.850;2024-02-26T04:33:36;11.45;;;9.93;;
41436;SDS011;27178;49.460;10.850;2024-02-26T04:36:04;11.00;;;9.47;;
41436;SDS011;27178;49.460;10.850;2024-02-26T04:38:33;12.15;;;9.65;;
41436;SDS011;27178;49.460;10.850;2024-02-26T04:41:03;11.98;;;9.77;;
41436;SDS011;27178;49.460;10.850;2024-02-26T04:43:31;12.57;;;10.30;;
41436;SDS011;27178;49.460;10.850;2024-02-26T04:45:58;11.73;;;10.43;;
41436;SDS011;27178;49.460;10.850;2024-02-26T04:48:27;11.45;;;9.70;;
41436;SDS011;27178;49.460;10.850;2024-02-26T04:50:55;10.15;;;9.13;;
41436;SDS011;27178;49.460;10.850;2024-02-26T04:53:24;10.90;;;9.50;;
41436;SDS011;27178;49.460;10.850;2024-02-26T04:55:52;11.50;;;10.23;;
41436;SDS011;27178;49.460;10.850;2024-02-26T04:58:22;10.95;;;9.85;;
41436;SDS011;27178;49.460;10.850;2024-02-26T05:00:50;10.70;;;9.60;;
41436;SDS011;27178;49.460;10.850;2024-02-26T05:03:19;9.55;;;8.65;;
41436;SDS011;27178;49.460;10.850;2024-02-26T05:05:47;11.60;;;10.07;;
41436;SDS011;27178;49.460;10.850;2024-02-26T05:08:16;12.57;;;9.13;;
41436;SDS011;27178;49.460;10.850;2024-02-26T05:10:44;10.50;;;9.43;;
41436;SDS011;27178;49.460;10.850;2024-02-26T05:13:13;12.52;;;9.52;;
41436;SDS011;27178;49.460;10.850;2024-02-26T05:15:45;12.05;;;9.70;;
41436;SDS011;27178;49.460;10.850;2024-02-26T05:18:15;12.40;;;10.00;;
41436;SDS011;27178;49.460;10.850;2024-02-26T05:20:44;10.70;;;9.60;;
41436;SDS011;27178;49.460;10.850;2024-02-26T05:23:15;9.27;;;8.15;;
41436;SDS011;27178;49.460;10.850;2024-02-26T05:25:46;8.73;;;7.83;;
41436;SDS011;27178;49.460;10.850;2024-02-26T05:28:16;8.93;;;7.60;;
41436;SDS011;27178;49.460;10.850;2024-02-26T05:30:48;8.88;;;7.90;;
41436;SDS011;27178;49.460;10.850;2024-02-26T05:33:16;9.02;;;8.10;;
41436;SDS011;27178;49.460;10.850;2024-02-26T05:35:46;10.17;;;9.13;;
41436;SDS011;27178;49.460;10.850;2024-02-26T05:38:14;11.00;;;9.88;;
41436;SDS011;27178;49.460;10.850;2024-02-26T05:40:43;11.80;;;10.50;;
41436;SDS011;27178;49.460;10.850;2024-02-26T05:43:12;13.18;;;10.95;;
41436;SDS011;27178;49.460;10.850;2024-02-26T05:45:42;11.43;;;10.23;;
41436;SDS011;27178;49.460;10.850;2024-02-26T05:48:11;11.30;;;10.18;;
41436;SDS011;27178;49.460;10.850;2024-02-26T05:50:40;10.88;;;9.77;;
41436;SDS011;27178;49.460;10.850;2024-02-26T05:53:08;10.68;;;9.68;;
41436;SDS011;27178;49.460;10.850;2024-02-26T05:55:37;11.70;;;10.50;;
41436;SDS011;27178;49.460;10.850;2024-02-26T05:58:06;12.17;;;10.70;;
41436;SDS011;27178;49.460;10.850;2024-02-26T06:00:34;11.27;;;10.03;;
41436;SDS011;27178;49.460;10.850;2024-02-26T06:03:02;11.32;;;10.18;;
41436;SDS011;27178;49.460;10.850;2024-02-26T06:05:32;12.07;;;10.13;;
41436;SDS011;27178;49.460;10.850;2024-02-26T06:08:01;10.33;;;9.23;;
41436;SDS011;27178;49.460;10.850;2024-02-26T06:10:30;11.27;;;10.10;;
41436;SDS011;27178;49.460;10.850;2024-02-26T06:12:58;11.10;;;9.93;;
41436;SDS011;27178;49.460;10.850;2024-02-26T06:15:26;10.98;;;9.73;;
41436;SDS011;27178;49.460;10.850;2024-02-26T06:17:54;11.30;;;9.80;;
41436;SDS011;27178;49.460;10.850;2024-02-26T06:20:23;10.82;;;9.20;;
41436;SDS011;27178;49.460;10.850;2024-02-26T06:22:52;9.95;;;8.52;;
41436;SDS011;27178;49.460;10.850;2024-02-26T06:25:21;9.73;;;8.82;;
41436;SDS011;27178;49.460;10.850;2024-02-26T06:27:49;9.80;;;8.80;;
41436;SDS011;27178;49.460;10.850;2024-02-26T06:30:17;10.93;;;9.60;;
41436;SDS011;27178;49.460;10.850;2024-02-26T06:32:45;9.90;;;8.83;;
41436;SDS011;27178;49.460;10.850;2024-02-26T06:35:14;10.32;;;9.23;;
41436;SDS011;27178;49.460;10.850;2024-02-26T06:37:42;11.18;;;9.27;;
41436;SDS011;27178;49.460;10.850;2024-02-26T06:40:12;8.70;;;7.80;;
41436;SDS011;27178;49.460;10.850;2024-02-26T06:42:40;9.77;;;8.68;;
41436;SDS011;27178;49.460;10.850;2024-02-26T06:45:14;10.27;;;9.17;;
41436;SDS011;27178;49.460;10.850;2024-02-26T06:47:42;9.98;;;8.98;;
41436;SDS011;27178;49.460;10.850;2024-02-26T06:50:11;12.98;;;10.48;;
41436;SDS011;27178;49.460;10.850;2024-02-26T06:52:40;13.93;;;12.52;;
41436;SDS011;27178;49.460;10.850;2024-02-26T06:55:08;13.07;;;11.75;;
41436;SDS011;27178;49.460;10.850;2024-02-26T06:57:38;12.52;;;11.23;;
41436;SDS011;27178;49.460;10.850;2024-02-26T07:00:06;13.63;;;12.03;;
41436;SDS011;27178;49.460;10.850;2024-02-26T07:02:39;16.92;;;14.30;;
41436;SDS011;27178;49.460;10.850;2024-02-26T07:05:08;25.00;;;20.70;;
41436;SDS011;27178;49.460;10.850;2024-02-26T07:07:36;26.88;;;22.30;;
41436;SDS011;27178;49.460;10.850;2024-02-26T07:10:05;19.67;;;17.08;;
41436;SDS011;27178;49.460;10.850;2024-02-26T07:12:34;15.13;;;13.55;;
41436;SDS011;27178;49.460;10.850;2024-02-26T07:15:04;15.53;;;12.70;;
41436;SDS011;27178;49.460;10.850;2024-02-26T07:17:34;13.20;;;11.80;;
41436;SDS011;27178;49.460;10.850;2024-02-26T07:20:03;12.27;;;10.88;;
41436;SDS011;27178;49.460;10.850;2024-02-26T07:22:35;12.57;;;11.07;;
41436;SDS011;27178;49.460;10.850;2024-02-26T07:25:04;16.92;;;12.88;;
41436;SDS011;27178;49.460;10.850;2024-02-26T07:27:35;15.07;;;12.10;;
41436;SDS011;27178;49.460;10.850;2024-02-26T07:30:05;16.42;;;13.95;;
41436;SDS011;27178;49.460;10.850;2024-02-26T07:32:35;21.17;;;17.75;;
41436;SDS011;27178;49.460;10.850;2024-02-26T07:35:03;24.48;;;19.08;;
41436;SDS011;27178;49.460;10.850;2024-02-26T07:37:32;18.45;;;14.85;;
41436;SDS011;27178;49.460;10.850;2024-02-26T07:40:01;14.25;;;12.05;;
41436;SDS011;27178;49.460;10.850;2024-02-26T07:42:29;12.45;;;10.75;;
41436;SDS011;27178;49.460;10.850;2024-02-26T07:44:57;11.40;;;9.90;;
41436;SDS011;27178;49.460;10.850;2024-02-26T07:47:27;9.50;;;8.55;;
41436;SDS011;27178;49.460;10.850;2024-02-26T07:49:56;8.60;;;7.35;;
41436;SDS011;27178;49.460;10.850;2024-02-26T07:52:24;8.80;;;7.28;;
41436;SDS011;27178;49.460;10.850;2024-02-26T07:54:53;8.18;;;7.38;;
41436;SDS011;27178;49.460;10.850;2024-02-26T07:57:21;7.23;;;6.53;;
41436;SDS011;27178;49.460;10.850;2024-02-26T07:59:49;9.57;;;7.65;;
41436;SDS011;27178;49.460;10.850;2024-02-26T08:02:17;11.95;;;9.70;;
41436;SDS011;27178;49.460;10.850;2024-02-26T08:04:47;9.25;;;8.27;;
41436;SDS011;27178;49.460;10.850;2024-02-26T08:07:15;10.38;;;8.63;;
41436;SDS011;27178;49.460;10.850;2024-02-26T08:09:44;8.30;;;7.50;;
41436;SDS011;27178;49.460;10.850;2024-02-26T08:12:12;7.70;;;6.90;;
41436;SDS011;27178;49.460;10.850;2024-02-26T08:14:40;6.97;;;6.28;;
41436;SDS011;27178;49.460;10.850;2024-02-26T08:17:09;6.13;;;5.35;;
41436;SDS011;27178;49.460;10.850;2024-02-26T08:19:37;6.40;;;5.55;;
41436;SDS011;27178;49.460;10.850;2024-02-26T08:22:07;7.15;;;6.45;;
41436;SDS011;27178;49.460;10.850;2024-02-26T08:24:36;7.30;;;6.60;;
41436;SDS011;27178;49.460;10.850;2024-02-26T08:27:05;6.80;;;6.15;;
41436;SDS011;27178;49.460;10.850;2024-02-26T08:29:33;6.80;;;6.13;;
41436;SDS011;27178;49.460;10.850;2024-02-26T08:32:01;7.38;;;6.68;;
41436;SDS011;27178;49.460;10.850;2024-02-26T08:34:30;6.97;;;6.07;;
41436;SDS011;27178;49.460;10.850;2024-02-26T08:36:58;6.70;;;6.10;;
41436;SDS011;27178;49.460;10.850;2024-02-26T08:39:28;6.55;;;5.35;;
41436;SDS011;27178;49.460;10.850;2024-02-26T08:41:56;8.55;;;7.68;;
41436;SDS011;27178;49.460;10.850;2024-02-26T08:44:24;7.50;;;6.75;;
41436;SDS011;27178;49.460;10.850;2024-02-26T08:46:53;8.90;;;6.78;;
41436;SDS011;27178;49.460;10.850;2024-02-26T08:49:21;7.05;;;6.35;;
41436;SDS011;27178;49.460;10.850;2024-02-26T08:51:50;7.13;;;6.20;;
41436;SDS011;27178;49.460;10.850;2024-02-26T08:54:19;7.63;;;6.82;;
41436;SDS011;27178;49.460;10.850;2024-02-26T08:56:48;10.73;;;9.63;;
41436;SDS011;27178;49.460;10.850;2024-02-26T08:59:16;12.30;;;11.10;;
41436;SDS011;27178;49.460;10.850;2024-02-26T09:01:48;11.82;;;10.40;;
41436;SDS011;27178;49.460;10.850;2024-02-26T09:04:17;9.27;;;8.27;;
41436;SDS011;27178;49.460;10.850;2024-02-26T09:06:45;9.07;;;8.18;;
41436;SDS011;27178;49.460;10.850;2024-02-26T09:09:14;7.88;;;7.10;;
41436;SDS011;27178;49.460;10.850;2024-02-26T09:11:42;5.82;;;5.18;;
41436;SDS011;27178;49.460;10.850;2024-02-26T09:14:12;7.72;;;5.38;;
41436;SDS011;27178;49.460;10.850;2024-02-26T09:16:40;5.68;;;5.10;;
41436;SDS011;27178;49.460;10.850;2024-02-26T09:19:09;5.25;;;4.75;;
41436;SDS011;27178;49.460;10.850;2024-02-26T09:21:39;5.80;;;4.85;;
41436;SDS011;27178;49.460;10.850;2024-02-26T09:24:10;6.43;;;5.78;;
41436;SDS011;27178;49.460;10.850;2024-02-26T09:26:38;5.00;;;4.50;;
41436;SDS011;27178;49.460;10.850;2024-02-26T09:29:07;6.00;;;4.43;;
41436;SDS011;27178;49.460;10.850;2024-02-26T09:31:37;4.70;;;4.30;;
41436;SDS011;27178;49.460;10.850;2024-02-26T09:34:07;5.28;;;4.30;;
41436;SDS011;27178;49.460;10.850;2024-02-26T09:36:36;4.28;;;3.55;;
41436;SDS011;27178;49.460;10.850;2024-02-26T09:39:04;3.95;;;3.55;;
41436;SDS011;27178;49.460;10.850;2024-02-26T09:41:34;4.07;;;3.72;;
41436;SDS011;27178;49.460;10.850;2024-02-26T09:44:02;3.55;;;3.25;;
41436;SDS011;27178;49.460;10.850;2024-02-26T09:46:32;3.90;;;3.45;;
41436;SDS011;27178;49.460;10.850;2024-02-26T09:49:02;4.90;;;3.70;;
41436;SDS011;27178;49.460;10.850;2024-02-26T09:51:31;4.63;;;3.42;;
41436;SDS011;27178;49.460;10.850;2024-02-26T09:54:00;5.15;;;3.67;;
41436;SDS011;27178;49.460;10.850;2024-02-26T09:56:32;3.78;;;3.30;;
41436;SDS011;27178;49.460;10.850;2024-02-26T09:59:05;3.70;;;3.33;;
41436;SDS011;27178;49.460;10.850;2024-02-26T10:01:38;4.28;;;3.88;;
41436;SDS011;27178;49.460;10.850;2024-02-26T10:04:10;4.55;;;3.58;;
41436;SDS011;27178;49.460;10.850;2024-02-26T10:06:39;5.20;;;4.32;;
41436;SDS011;27178;49.460;10.850;2024-02-26T10:09:10;4.18;;;3.58;;
41436;SDS011;27178;49.460;10.850;2024-02-26T10:11:42;5.05;;;3.53;;
41436;SDS011;27178;49.460;10.850;2024-02-26T10:14:11;4.10;;;3.58;;
41436;SDS011;27178;49.460;10.850;2024-02-26T10:16:39;4.78;;;3.63;;
41436;SDS011;27178;49.460;10.850;2024-02-26T10:19:10;3.80;;;3.40;;
41436;SDS011;27178;49.460;10.850;2024-02-26T10:21:55;3.35;;;3.03;;
41436;SDS011;27178;49.460;10.850;2024-02-26T10:24:24;3.67;;;3.22;;
41436;SDS011;27178;49.460;10.850;2024-02-26T10:26:54;6.00;;;4.15;;
41436;SDS011;27178;49.460;10.850;2024-02-26T10:29:23;4.40;;;3.92;;
41436;SDS011;27178;49.460;10.850;2024-02-26T10:31:52;6.22;;;3.80;;
41436;SDS011;27178;49.460;10.850;2024-02-26T10:34:24;5.25;;;3.33;;
41436;SDS011;27178;49.460;10.850;2024-02-26T10:36:53;3.97;;;3.13;;
41436;SDS011;27178;49.460;10.850;2024-02-26T10:39:22;4.50;;;3.30;;
41436;SDS011;27178;49.460;10.850;2024-02-26T10:41:50;3.50;;;2.95;;
41436;SDS011;27178;49.460;10.850;2024-02-26T10:44:19;3.20;;;2.95;;
41436;SDS011;27178;49.460;10.850;2024-02-26T10:46:48;3.22;;;2.92;;
41436;SDS011;27178;49.460;10.850;2024-02-26T10:49:16;3.95;;;3.38;;
41436;SDS011;27178;49.460;10.850;2024-02-26T10:51:51;4.20;;;3.47;;
41436;SDS011;27178;49.460;10.850;2024-02-26T10:54:23;4.75;;;3.20;;
41436;SDS011;27178;49.460;10.850;2024-02-26T10:56:54;4.45;;;2.88;;
41436;SDS011;27178;49.460;10.850;2024-02-26T10:59:24;3.67;;;2.97;;
41436;SDS011;27178;49.460;10.850;2024-02-26T11:01:53;3.85;;;2.95;;
41436;SDS011;27178;49.460;10.850;2024-02-26T11:04:23;4.20;;;2.97;;
41436;SDS011;27178;49.460;10.850;2024-02-26T11:06:56;3.17;;;2.88;;
41436;SDS011;27178;49.460;10.850;2024-02-26T11:09:26;3.42;;;3.13;;
41436;SDS011;27178;49.460;10.850;2024-02-26T11:11:55;4.70;;;3.22;;
41436;SDS011;27178;49.460;10.850;2024-02-26T11:14:25;4.03;;;2.83;;
41436;SDS011;27178;49.460;10.850;2024-02-26T11:16:57;3.08;;;2.78;;
41436;SDS011;27178;49.460;10.850;2024-02-26T11:19:27;4.15;;;3.75;;
41436;SDS011;27178;49.460;10.850;2024-02-26T11:22:02;3.42;;;3.13;;
41436;SDS011;27178;49.460;10.850;2024-02-26T11:24:46;3.00;;;2.80;;
41436;SDS011;27178;49.460;10.850;2024-02-26T11:27:15;4.32;;;3.03;;
41436;SDS011;27178;49.460;10.850;2024-02-26T11:29:47;2.92;;;2.63;;
41436;SDS011;27178;49.460;10.850;2024-02-26T11:32:19;3.08;;;2.78;;
41436;SDS011;27178;49.460;10.850;2024-02-26T11:34:47;4.70;;;2.83;;
41436;SDS011;27178;49.460;10.850;2024-02-26T11:37:18;3.65;;;2.53;;
41436;SDS011;27178;49.460;10.850;2024-02-26T11:39:46;2.75;;;2.55;;
41436;SDS011;27178;49.460;10.850;2024-02-26T11:42:15;3.03;;;2.72;;
41436;SDS011;27178;49.460;10.850;2024-02-26T11:44:44;2.33;;;2.13;;
41436;SDS011;27178;49.460;10.850;2024-02-26T11:47:13;2.63;;;2.42;;
41436;SDS011;27178;49.460;10.850;2024-02-26T11:49:48;2.45;;;2.25;;
41436;SDS011;27178;49.460;10.850;2024-02-26T11:52:18;2.50;;;2.08;;
41436;SDS011;27178;49.460;10.850;2024-02-26T11:54:48;4.55;;;2.60;;
41436;SDS011;27178;49.460;10.850;2024-02-26T12:00:12;3.95;;;2.45;;
41436;SDS011;27178;49.460;10.850;2024-02-26T12:02:44;2.40;;;2.20;;
41436;SDS011;27178;49.460;10.850;2024-02-26T12:05:14;2.80;;;2.28;;
41436;SDS011;27178;49.460;10.850;2024-02-26T12:07:46;3.05;;;2.35;;
41436;SDS011;27178;49.460;10.850;2024-02-26T12:10:17;2.60;;;2.40;;
41436;SDS011;27178;49.460;10.850;2024-02-26T12:12:58;3.58;;;2.42;;
41436;SDS011;27178;49.460;10.850;2024-02-26T12:15:31;3.20;;;2.72;;
41436;SDS011;27178;49.460;10.850;2024-02-26T12:18:04;2.40;;;2.20;;
41436;SDS011;27178;49.460;10.850;2024-02-26T12:20:34;2.78;;;2.55;;
41436;SDS011;27178;49.460;10.850;2024-02-26T12:23:04;2.92;;;2.55;;
41436;SDS011;27178;49.460;10.850;2024-02-26T12:25:33;3.13;;;2.83;;
41436;SDS011;27178;49.460;10.850;2024-02-26T12:28:01;2.80;;;2.50;;
41436;SDS011;27178;49.460;10.850;2024-02-26T12:30:30;2.70;;;2.38;;
41436;SDS011;27178;49.460;10.850;2024-02-26T12:32:59;2.40;;;2.20;;
41436;SDS011;27178;49.460;10.850;2024-02-26T12:35:28;2.60;;;2.40;;
41436;SDS011;27178;49.460;10.850;2024-02-26T12:37:58;2.55;;;2.35;;
41436;SDS011;27178;49.460;10.850;2024-02-26T12:40:28;2.90;;;2.35;;
41436;SDS011;27178;49.460;10.850;2024-02-26T12:42:57;2.55;;;2.35;;
41436;SDS011;27178;49.460;10.850;2024-02-26T12:45:25;2.55;;;2.35;;
41436;SDS011;27178;49.460;10.850;2024-02-26T12:47:55;2.38;;;2.08;;
41436;SDS011;27178;49.460;10.850;2024-02-26T12:50:24;2.58;;;2.38;;
41436;SDS011;27178;49.460;10.850;2024-02-26T12:52:52;2.47;;;2.28;;
41436;SDS011;27178;49.460;10.850;2024-02-26T12:55:21;2.38;;;2.13;;
41436;SDS011;27178;49.460;10.850;2024-02-26T12:57:50;3.85;;;2.28;;
41436;SDS011;27178;49.460;10.850;2024-02-26T13:00:22;2.30;;;2.10;;
41436;SDS011;27178;49.460;10.850;2024-02-26T13:02:52;2.75;;;2.25;;
41436;SDS011;27178;49.460;10.850;2024-02-26T13:05:22;3.28;;;2.08;;
41436;SDS011;27178;49.460;10.850;2024-02-26T13:07:51;2.28;;;2.08;;
41436;SDS011;27178;49.460;10.850;2024-02-26T13:10:20;2.20;;;1.95;;
41436;SDS011;27178;49.460;10.850;2024-02-26T13:12:49;2.03;;;1.75;;
41436;SDS011;27178;49.460;10.850;2024-02-26T13:15:20;2.50;;;2.10;;
41436;SDS011;27178;49.460;10.850;2024-02-26T13:17:49;2.28;;;2.08;;
41436;SDS011;27178;49.460;10.850;2024-02-26T13:20:26;2.38;;;2.17;;
41436;SDS011;27178;49.460;10.850;2024-02-26T13:23:02;2.17;;;1.92;;
41436;SDS011;27178;49.460;10.850;2024-02-26T13:25:31;2.05;;;1.88;;
41436;SDS011;27178;49.460;10.850;2024-02-26T13:28:08;2.20;;;1.77;;
41436;SDS011;27178;49.460;10.850;2024-02-26T13:30:40;2.92;;;1.80;;
41436;SDS011;27178;49.460;10.850;2024-02-26T13:33:09;2.08;;;1.88;;
41436;SDS011;27178;49.460;10.850;2024-02-26T13:35:38;3.67;;;1.92;;
41436;SDS011;27178;49.460;10.850;2024-02-26T13:38:09;2.08;;;1.92;;
41436;SDS011;27178;49.460;10.850;2024-02-26T13:40:38;2.20;;;1.75;;
41436;SDS011;27178;49.460;10.850;2024-02-26T13:43:08;1.70;;;1.60;;
41436;SDS011;27178;49.460;10.850;2024-02-26T13:45:37;2.42;;;2.00;;
41436;SDS011;27178;49.460;10.850;2024-02-26T13:48:06;1.80;;;1.63;;
41436;SDS011;27178;49.460;10.850;2024-02-26T13:50:37;1.95;;;1.80;;
41436;SDS011;27178;49.460;10.850;2024-02-26T13:53:05;2.90;;;2.58;;
41436;SDS011;27178;49.460;10.850;2024-02-26T13:55:34;3.10;;;2.50;;
41436;SDS011;27178;49.460;10.850;2024-02-26T13:58:03;5.00;;;4.20;;
41436;SDS011;27178;49.460;10.850;2024-02-26T14:00:33;4.80;;;3.67;;
41436;SDS011;27178;49.460;10.850;2024-02-26T14:03:02;6.80;;;4.45;;
41436;SDS011;27178;49.460;10.850;2024-02-26T14:05:31;9.65;;;4.43;;
41436;SDS011;27178;49.460;10.850;2024-02-26T14:07:59;6.93;;;4.63;;
41436;SDS011;27178;49.460;10.850;2024-02-26T14:10:28;5.93;;;4.30;;
41436;SDS011;27178;49.460;10.850;2024-02-26T14:12:57;5.95;;;4.47;;
41436;SDS011;27178;49.460;10.850;2024-02-26T14:15:25;5.60;;;4.32;;
41436;SDS011;27178;49.460;10.850;2024-02-26T14:17:56;4.65;;;3.80;;
41436;SDS011;27178;49.460;10.850;2024-02-26T14:20:25;5.50;;;4.38;;
41436;SDS011;27178;49.460;10.850;2024-02-26T14:22:53;6.03;;;3.60;;
41436;SDS011;27178;49.460;10.850;2024-02-26T14:25:21;4.22;;;3.35;;
41436;SDS011;27178;49.460;10.850;2024-02-26T14:27:55;4.85;;;3.55;;
41436;SDS011;27178;49.460;10.850;2024-02-26T14:30:24;4.68;;;2.70;;
41436;SDS011;27178;49.460;10.850;2024-02-26T14:32:53;4.35;;;3.30;;
41436;SDS011;27178;49.460;10.850;2024-02-26T14:35:23;2.92;;;2.65;;
41436;SDS011;27178;49.460;10.850;2024-02-26T14:37:52;3.30;;;2.90;;
41436;SDS011;27178;49.460;10.850;2024-02-26T14:40:21;4.03;;;3.42;;
41436;SDS011;27178;49.460;10.850;2024-02-26T14:42:50;5.72;;;3.75;;